MET193 - Los Angeles to Hong Kong

Airbus A330-243
162EP
15 hrs 15 mins
6305 nm
Scheduled - M | TU | W | TH | F | SA

Bid/PiRep Status

Bid was submitted on Jan 01 2017.

PiRep # 74556: Approved by Dave Nichols on January 2nd, 2017 2:56 UTC

Departure

Departing from
Los Angeles (LAX)
Departure gate
Scheduled Departure
GMT 0900
Local 0100
METAR KLAX 161153Z 14003KT 10SM SCT018 13/11 A3004 RMK AO2 SLP171 T01280106 10139 20122 58010
TAF KLAX 161122Z 1612/1718 09005KT P6SM BKN018 OVC035 FM161700 25010KT P6SM SKC FM170300 VRB03KT P6SM SKC
  • No charts available

Arrival

Arriving at
Hong Kong (HKG)
Arrival gate
Terminal 1
Scheduled Arrival
GMT 0015
Local 0815
METAR VHHH 161230Z 10011KT 9999 FEW022 SCT028 18/13 Q1020 NOSIG
TAF TAF VHHH 161100Z 1612/1718 06010KT 8000 FEW018 SCT030 TX19/1706Z TN17/1623Z TEMPO 1615/1624 08015G25KT 4000 -RA BR

Route Map

Planning Resources

KONT SLI J134 LAX J5 LANDO J50 EHF J5 YVR J590 YZT J523 YZP TRK18 KATCH B757 MARLO J123 ODK R341 NATES R220 GOC W18 KINPU Y88 SENJO W18 NAKTU V58 XMC V17 LABEL Y50 KOSHI A1 APU W4 HLG A1 ELATO J101 PONTI VHHH
POM7 PMD V197 AMONT V459 FRA V332 RBL J1 OED J501 TOU J523 YZP TR19 FRIED J804R MDO J179 ENM G583 BALUB B804 GIRAN B962 DITOR B233 NULAR B467 TENAS A586 CJU B576 SALMI L1 KADLO A1 ELATO STAR VHHH
VTU5 RZS LIBBO BRINY ALCOA CEPAS COBAD 4100N 1400W 4300N 1500W 4500N 1600W4700N 1800E 4600N 1600E KALNA OTR5 ADNAP OTR5 PABBA A590 MJE A1 RUSAR A1 APU MKG A1 ELATO V521 ABBEY
PMD ROBIE K SEALS YKE PLT
HASSA5 PMD J65 LANDO J50 EHF J5 YVR J590 YZT J523 YZP TRK18 KATCH B757 MARLO J123 ODK R341 NATES R220 GOC W18 KINPU Y88 SENJO W18 NAKTU V58 XMC V17 LABEL Y50 KOSHI A1 APU W4 HLG A1 ELATO J101 TUBBY DOTM5A 26DME CI07R 55IFL LC
Route:
OFP Layout:
Units:
Detailed Navlog:
ETOPS Planning:
Plan Stepclimbs:
Runway Analysis:
Include NOTAMS:
FIR NOTAMS:
Flight Maps:

Return Flights

MET184
Boeing 777-300ER
1200 GMT
MET194
Airbus A330-243
0145 GMT

Popularity

Hub Current Bids PiReps this month Total PiReps
KMCI 0 1 7
KLAX 0 0 7
KBOS 0 0 0